sensor_id;sensor_type;location;lat;lon;timestamp;pressure;altitude;pressure_sealevel;temperature;humidity
34235;BME280;20500;49.856;20.290;2022-07-18T00:01:45;99857.42;;;11.27;58.90
34235;BME280;20500;49.856;20.290;2022-07-18T00:04:51;99859.03;;;11.26;58.96
34235;BME280;20500;49.856;20.290;2022-07-18T00:07:57;99864.20;;;11.23;59.01
34235;BME280;20500;49.856;20.290;2022-07-18T00:11:02;99863.60;;;11.18;59.08
34235;BME280;20500;49.856;20.290;2022-07-18T00:14:08;99864.55;;;11.13;59.27
34235;BME280;20500;49.856;20.290;2022-07-18T00:17:13;99868.40;;;11.13;59.39
34235;BME280;20500;49.856;20.290;2022-07-18T00:20:18;99867.16;;;11.14;59.45
34235;BME280;20500;49.856;20.290;2022-07-18T00:23:24;99866.98;;;11.14;59.58
34235;BME280;20500;49.856;20.290;2022-07-18T00:26:29;99864.46;;;11.11;59.57
34235;BME280;20500;49.856;20.290;2022-07-18T00:29:36;99868.84;;;11.05;59.58
34235;BME280;20500;49.856;20.290;2022-07-18T00:32:41;99867.89;;;11.01;59.65
34235;BME280;20500;49.856;20.290;2022-07-18T00:35:47;99871.04;;;10.97;59.78
34235;BME280;20500;49.856;20.290;2022-07-18T00:38:53;99872.59;;;10.93;59.76
34235;BME280;20500;49.856;20.290;2022-07-18T00:41:58;99870.93;;;10.88;59.88
34235;BME280;20500;49.856;20.290;2022-07-18T00:45:04;99871.23;;;10.83;59.93
34235;BME280;20500;49.856;20.290;2022-07-18T00:48:10;99874.71;;;10.80;59.97
34235;BME280;20500;49.856;20.290;2022-07-18T00:51:16;99873.85;;;10.76;60.14
34235;BME280;20500;49.856;20.290;2022-07-18T00:54:22;99878.63;;;10.72;60.08
34235;BME280;20500;49.856;20.290;2022-07-18T00:57:27;99874.18;;;10.67;60.19
34235;BME280;20500;49.856;20.290;2022-07-18T01:00:33;99879.87;;;10.63;60.28
34235;BME280;20500;49.856;20.290;2022-07-18T01:03:56;99877.30;;;10.58;60.44
34235;BME280;20500;49.856;20.290;2022-07-18T01:07:02;99877.35;;;10.53;60.37
34235;BME280;20500;49.856;20.290;2022-07-18T01:10:09;99875.86;;;10.50;60.49
34235;BME280;20500;49.856;20.290;2022-07-18T01:13:14;99874.84;;;10.44;60.47
34235;BME280;20500;49.856;20.290;2022-07-18T01:16:20;99871.58;;;10.39;60.53
34235;BME280;20500;49.856;20.290;2022-07-18T01:19:26;99869.55;;;10.34;60.60
34235;BME280;20500;49.856;20.290;2022-07-18T01:22:32;99873.60;;;10.30;60.66
34235;BME280;20500;49.856;20.290;2022-07-18T01:25:38;99872.23;;;10.28;60.74
34235;BME280;20500;49.856;20.290;2022-07-18T01:28:44;99870.23;;;10.26;60.80
34235;BME280;20500;49.856;20.290;2022-07-18T01:31:49;99864.29;;;10.23;60.94
34235;BME280;20500;49.856;20.290;2022-07-18T01:34:55;99861.60;;;10.21;60.95
34235;BME280;20500;49.856;20.290;2022-07-18T01:38:01;99859.34;;;10.17;61.06
34235;BME280;20500;49.856;20.290;2022-07-18T01:41:07;99854.92;;;10.14;61.04
34235;BME280;20500;49.856;20.290;2022-07-18T01:44:13;99855.20;;;10.12;61.15
34235;BME280;20500;49.856;20.290;2022-07-18T01:47:18;99849.62;;;10.08;61.26
34235;BME280;20500;49.856;20.290;2022-07-18T01:50:23;99847.39;;;10.05;61.45
34235;BME280;20500;49.856;20.290;2022-07-18T01:53:29;99844.70;;;10.04;61.50
34235;BME280;20500;49.856;20.290;2022-07-18T01:56:34;99838.68;;;9.99;61.55
34235;BME280;20500;49.856;20.290;2022-07-18T01:59:40;99835.02;;;9.96;61.71
34235;BME280;20500;49.856;20.290;2022-07-18T02:02:45;99831.00;;;9.95;61.69
34235;BME280;20500;49.856;20.290;2022-07-18T02:05:51;99836.79;;;9.91;61.77
34235;BME280;20500;49.856;20.290;2022-07-18T02:08:56;99835.66;;;9.87;61.68
34235;BME280;20500;49.856;20.290;2022-07-18T02:12:02;99833.77;;;9.82;61.75
34235;BME280;20500;49.856;20.290;2022-07-18T02:15:10;99837.30;;;9.78;61.77
34235;BME280;20500;49.856;20.290;2022-07-18T02:18:16;99832.62;;;9.74;61.96
34235;BME280;20500;49.856;20.290;2022-07-18T02:21:21;99832.17;;;9.73;61.93
34235;BME280;20500;49.856;20.290;2022-07-18T02:24:27;99830.08;;;9.72;62.01
34235;BME280;20500;49.856;20.290;2022-07-18T02:27:33;99829.16;;;9.70;62.07
34235;BME280;20500;49.856;20.290;2022-07-18T02:30:38;99823.79;;;9.68;62.03
34235;BME280;20500;49.856;20.290;2022-07-18T02:33:44;99824.46;;;9.65;62.07
34235;BME280;20500;49.856;20.290;2022-07-18T02:36:50;99831.30;;;9.62;62.15
34235;BME280;20500;49.856;20.290;2022-07-18T02:39:55;99828.59;;;9.59;62.25
34235;BME280;20500;49.856;20.290;2022-07-18T02:43:01;99838.35;;;9.55;62.25
34235;BME280;20500;49.856;20.290;2022-07-18T02:46:06;99836.81;;;9.52;62.26
34235;BME280;20500;49.856;20.290;2022-07-18T02:49:12;99839.98;;;9.48;62.26
34235;BME280;20500;49.856;20.290;2022-07-18T02:52:31;99838.78;;;9.44;62.43
34235;BME280;20500;49.856;20.290;2022-07-18T02:55:36;99839.89;;;9.42;62.47
34235;BME280;20500;49.856;20.290;2022-07-18T02:58:41;99839.23;;;9.41;62.55
34235;BME280;20500;49.856;20.290;2022-07-18T03:01:47;99845.98;;;9.41;62.64
34235;BME280;20500;49.856;20.290;2022-07-18T03:04:54;99846.38;;;9.39;62.70
34235;BME280;20500;49.856;20.290;2022-07-18T03:07:59;99847.59;;;9.38;62.75
34235;BME280;20500;49.856;20.290;2022-07-18T03:11:04;99847.78;;;9.36;62.77
34235;BME280;20500;49.856;20.290;2022-07-18T03:14:10;99842.70;;;9.34;62.86
34235;BME280;20500;49.856;20.290;2022-07-18T03:17:15;99842.69;;;9.34;62.87
34235;BME280;20500;49.856;20.290;2022-07-18T03:20:21;99843.95;;;9.34;62.97
34235;BME280;20500;49.856;20.290;2022-07-18T03:23:26;99845.21;;;9.34;63.00
34235;BME280;20500;49.856;20.290;2022-07-18T03:26:32;99846.69;;;9.36;63.08
34235;BME280;20500;49.856;20.290;2022-07-18T03:29:38;99849.21;;;9.38;63.19
34235;BME280;20500;49.856;20.290;2022-07-18T03:32:43;99853.56;;;9.39;63.18
34235;BME280;20500;49.856;20.290;2022-07-18T03:35:48;99858.06;;;9.43;63.30
34235;BME280;20500;49.856;20.290;2022-07-18T03:38:54;99855.05;;;9.46;63.44
34235;BME280;20500;49.856;20.290;2022-07-18T03:41:59;99854.50;;;9.49;63.56
34235;BME280;20500;49.856;20.290;2022-07-18T03:45:07;99856.62;;;9.55;63.57
34235;BME280;20500;49.856;20.290;2022-07-18T03:48:12;99860.95;;;9.61;63.69
34235;BME280;20500;49.856;20.290;2022-07-18T03:51:18;99866.89;;;9.65;63.74
34235;BME280;20500;49.856;20.290;2022-07-18T03:54:23;99867.21;;;9.69;63.76
34235;BME280;20500;49.856;20.290;2022-07-18T03:57:29;99874.86;;;9.78;64.03
34235;BME280;20500;49.856;20.290;2022-07-18T04:00:35;99875.55;;;9.83;64.06
34235;BME280;20500;49.856;20.290;2022-07-18T04:03:40;99866.02;;;9.91;64.14
34235;BME280;20500;49.856;20.290;2022-07-18T04:06:46;99862.91;;;9.98;64.37
34235;BME280;20500;49.856;20.290;2022-07-18T04:09:51;99864.65;;;10.06;64.67
34235;BME280;20500;49.856;20.290;2022-07-18T04:12:58;99869.88;;;10.34;65.41
34235;BME280;20500;49.856;20.290;2022-07-18T04:16:04;99869.80;;;10.69;65.21
34235;BME280;20500;49.856;20.290;2022-07-18T04:19:09;99868.38;;;10.86;64.76
34235;BME280;20500;49.856;20.290;2022-07-18T04:22:15;99868.39;;;10.93;64.78
34235;BME280;20500;49.856;20.290;2022-07-18T04:25:21;99869.70;;;11.19;65.67
34235;BME280;20500;49.856;20.290;2022-07-18T04:28:27;99869.98;;;11.76;66.18
34235;BME280;20500;49.856;20.290;2022-07-18T04:31:32;99874.81;;;12.45;65.98
34235;BME280;20500;49.856;20.290;2022-07-18T04:34:38;99879.02;;;13.21;65.78
34235;BME280;20500;49.856;20.290;2022-07-18T04:37:43;99880.42;;;13.89;64.96
34235;BME280;20500;49.856;20.290;2022-07-18T04:40:49;99879.64;;;14.42;64.59
34235;BME280;20500;49.856;20.290;2022-07-18T04:43:54;99884.34;;;14.95;64.22
34235;BME280;20500;49.856;20.290;2022-07-18T04:46:59;99881.86;;;15.41;63.60
34235;BME280;20500;49.856;20.290;2022-07-18T04:50:06;99883.15;;;15.83;63.17
34235;BME280;20500;49.856;20.290;2022-07-18T04:53:12;99884.09;;;16.12;62.68
34235;BME280;20500;49.856;20.290;2022-07-18T04:56:18;99883.02;;;16.36;62.48
34235;BME280;20500;49.856;20.290;2022-07-18T04:59:23;99886.38;;;16.67;62.01
34235;BME280;20500;49.856;20.290;2022-07-18T05:02:28;99885.98;;;16.93;61.75
34235;BME280;20500;49.856;20.290;2022-07-18T05:05:34;99890.50;;;17.13;61.32
34235;BME280;20500;49.856;20.290;2022-07-18T05:08:40;99889.15;;;17.24;61.12
34235;BME280;20500;49.856;20.290;2022-07-18T05:11:45;99890.52;;;17.28;60.96
34235;BME280;20500;49.856;20.290;2022-07-18T05:14:50;99886.34;;;17.32;60.71
34235;BME280;20500;49.856;20.290;2022-07-18T05:18:05;99883.63;;;17.56;60.78
34235;BME280;20500;49.856;20.290;2022-07-18T05:21:10;99882.98;;;17.70;60.35
34235;BME280;20500;49.856;20.290;2022-07-18T05:24:16;99879.33;;;17.93;60.10
34235;BME280;20500;49.856;20.290;2022-07-18T05:27:21;99879.63;;;18.10;60.15
34235;BME280;20500;49.856;20.290;2022-07-18T05:30:26;99870.10;;;18.28;59.97
34235;BME280;20500;49.856;20.290;2022-07-18T05:33:32;99867.10;;;18.45;59.64
34235;BME280;20500;49.856;20.290;2022-07-18T05:36:40;99869.08;;;18.63;59.41
34235;BME280;20500;49.856;20.290;2022-07-18T05:39:46;99868.88;;;18.77;59.20
34235;BME280;20500;49.856;20.290;2022-07-18T05:42:52;99865.40;;;18.90;59.00
34235;BME280;20500;49.856;20.290;2022-07-18T05:45:58;99866.88;;;19.05;58.69
34235;BME280;20500;49.856;20.290;2022-07-18T05:49:04;99864.16;;;19.15;58.49
34235;BME280;20500;49.856;20.290;2022-07-18T05:52:10;99862.08;;;19.27;58.24
34235;BME280;20500;49.856;20.290;2022-07-18T05:55:15;99855.95;;;19.47;57.87
34235;BME280;20500;49.856;20.290;2022-07-18T05:58:21;99850.67;;;19.65;57.83
34235;BME280;20500;49.856;20.290;2022-07-18T06:01:26;99849.80;;;19.89;57.55
34235;BME280;20500;49.856;20.290;2022-07-18T06:04:31;99847.64;;;20.03;57.07
34235;BME280;20500;49.856;20.290;2022-07-18T06:07:36;99851.01;;;20.07;56.67
34235;BME280;20500;49.856;20.290;2022-07-18T06:10:42;99847.91;;;20.18;56.65
34235;BME280;20500;49.856;20.290;2022-07-18T06:13:49;99848.86;;;20.41;56.74
34235;BME280;20500;49.856;20.290;2022-07-18T06:16:55;99841.51;;;20.64;56.68
34235;BME280;20500;49.856;20.290;2022-07-18T06:20:01;99843.91;;;20.89;56.22
34235;BME280;20500;49.856;20.290;2022-07-18T06:23:09;99850.48;;;21.03;56.10
34235;BME280;20500;49.856;20.290;2022-07-18T06:26:15;99849.86;;;21.14;56.03
34235;BME280;20500;49.856;20.290;2022-07-18T06:29:20;99851.46;;;21.30;55.76
34235;BME280;20500;49.856;20.290;2022-07-18T06:32:26;99849.90;;;21.41;55.45
34235;BME280;20500;49.856;20.290;2022-07-18T06:35:31;99846.66;;;21.40;55.26
34235;BME280;20500;49.856;20.290;2022-07-18T06:38:36;99846.22;;;21.62;55.27
34235;BME280;20500;49.856;20.290;2022-07-18T06:41:42;99841.36;;;21.82;55.00
34235;BME280;20500;49.856;20.290;2022-07-18T06:44:47;99836.53;;;21.81;54.45
34235;BME280;20500;49.856;20.290;2022-07-18T06:47:53;99837.90;;;21.83;54.40
34235;BME280;20500;49.856;20.290;2022-07-18T06:50:58;99839.09;;;21.94;54.32
34235;BME280;20500;49.856;20.290;2022-07-18T06:54:04;99837.07;;;22.06;53.81
34235;BME280;20500;49.856;20.290;2022-07-18T06:57:09;99829.95;;;22.20;53.71
34235;BME280;20500;49.856;20.290;2022-07-18T07:00:16;99829.27;;;22.44;53.73
34235;BME280;20500;49.856;20.290;2022-07-18T07:03:21;99824.01;;;22.72;53.51
34235;BME280;20500;49.856;20.290;2022-07-18T07:06:27;99829.80;;;22.96;53.03
34235;BME280;20500;49.856;20.290;2022-07-18T07:09:32;99826.67;;;23.19;52.53
34235;BME280;20500;49.856;20.290;2022-07-18T07:12:42;99825.29;;;23.44;52.41
34235;BME280;20500;49.856;20.290;2022-07-18T07:15:48;99826.88;;;23.70;51.73
34235;BME280;20500;49.856;20.290;2022-07-18T07:18:53;99825.91;;;23.97;51.32
34235;BME280;20500;49.856;20.290;2022-07-18T07:21:59;99826.80;;;24.21;50.96
34235;BME280;20500;49.856;20.290;2022-07-18T07:25:04;99823.02;;;24.50;50.64
34235;BME280;20500;49.856;20.290;2022-07-18T07:28:09;99826.02;;;24.77;50.23
34235;BME280;20500;49.856;20.290;2022-07-18T07:31:15;99824.95;;;24.89;49.79
34235;BME280;20500;49.856;20.290;2022-07-18T07:34:19;99829.61;;;24.98;49.40
34235;BME280;20500;49.856;20.290;2022-07-18T07:37:24;99828.20;;;25.18;48.77
34235;BME280;20500;49.856;20.290;2022-07-18T07:40:30;99829.45;;;25.33;48.59
34235;BME280;20500;49.856;20.290;2022-07-18T07:43:35;99831.33;;;25.35;48.25
34235;BME280;20500;49.856;20.290;2022-07-18T07:46:42;99830.63;;;25.38;48.13
34235;BME280;20500;49.856;20.290;2022-07-18T07:49:47;99833.38;;;25.49;47.78
34235;BME280;20500;49.856;20.290;2022-07-18T07:52:52;99834.33;;;25.65;47.27
34235;BME280;20500;49.856;20.290;2022-07-18T07:55:57;99837.98;;;25.76;46.56
34235;BME280;20500;49.856;20.290;2022-07-18T07:59:02;99837.25;;;25.85;46.17
34235;BME280;20500;49.856;20.290;2022-07-18T08:02:07;99844.35;;;25.92;45.85
34235;BME280;20500;49.856;20.290;2022-07-18T08:05:12;99837.48;;;26.03;45.47
34235;BME280;20500;49.856;20.290;2022-07-18T08:08:19;99840.58;;;26.07;45.30
34235;BME280;20500;49.856;20.290;2022-07-18T08:11:24;99839.29;;;26.17;44.93
34235;BME280;20500;49.856;20.290;2022-07-18T08:14:29;99843.90;;;26.24;44.44
34235;BME280;20500;49.856;20.290;2022-07-18T08:17:37;99843.95;;;26.09;44.12
34235;BME280;20500;49.856;20.290;2022-07-18T08:20:50;99844.27;;;26.14;43.98
34235;BME280;20500;49.856;20.290;2022-07-18T08:23:56;99844.52;;;26.36;43.53
34235;BME280;20500;49.856;20.290;2022-07-18T08:27:08;99846.33;;;26.57;43.13
34235;BME280;20500;49.856;20.290;2022-07-18T08:30:12;99835.11;;;26.78;42.85
34235;BME280;20500;49.856;20.290;2022-07-18T08:33:18;99836.81;;;26.93;42.52
34235;BME280;20500;49.856;20.290;2022-07-18T08:36:24;99839.27;;;27.09;42.34
34235;BME280;20500;49.856;20.290;2022-07-18T08:39:29;99834.50;;;27.13;41.89
34235;BME280;20500;49.856;20.290;2022-07-18T08:42:33;99833.64;;;27.21;41.64
34235;BME280;20500;49.856;20.290;2022-07-18T08:46:04;99828.69;;;27.14;41.06
34235;BME280;20500;49.856;20.290;2022-07-18T08:49:09;99826.36;;;27.11;40.60
34235;BME280;20500;49.856;20.290;2022-07-18T08:52:16;99827.89;;;27.03;40.56
34235;BME280;20500;49.856;20.290;2022-07-18T08:55:39;99825.90;;;26.99;40.18
34235;BME280;20500;49.856;20.290;2022-07-18T08:58:43;99823.20;;;26.92;39.87
34235;BME280;20500;49.856;20.290;2022-07-18T09:01:50;99819.98;;;26.89;39.54
34235;BME280;20500;49.856;20.290;2022-07-18T09:04:54;99819.88;;;26.89;39.49
34235;BME280;20500;49.856;20.290;2022-07-18T09:08:20;99815.52;;;26.89;39.14
34235;BME280;20500;49.856;20.290;2022-07-18T09:11:26;99815.52;;;26.92;39.14
34235;BME280;20500;49.856;20.290;2022-07-18T09:14:51;99809.20;;;27.00;39.07
34235;BME280;20500;49.856;20.290;2022-07-18T09:17:58;99809.58;;;27.14;38.77
34235;BME280;20500;49.856;20.290;2022-07-18T09:21:24;99812.87;;;26.98;38.35
34235;BME280;20500;49.856;20.290;2022-07-18T09:24:50;99807.74;;;26.88;38.46
34235;BME280;20500;49.856;20.290;2022-07-18T09:28:00;99803.92;;;27.05;38.34
34235;BME280;20500;49.856;20.290;2022-07-18T09:31:04;99801.16;;;27.27;38.19
34235;BME280;20500;49.856;20.290;2022-07-18T09:34:35;99803.90;;;27.38;37.83
34235;BME280;20500;49.856;20.290;2022-07-18T09:37:56;99802.59;;;27.09;37.63
34235;BME280;20500;49.856;20.290;2022-07-18T09:41:02;99804.03;;;26.74;37.43
34235;BME280;20500;49.856;20.290;2022-07-18T09:44:19;99799.96;;;26.57;37.36
34235;BME280;20500;49.856;20.290;2022-07-18T09:47:25;99802.61;;;26.60;37.28
34235;BME280;20500;49.856;20.290;2022-07-18T09:50:31;99804.86;;;26.72;37.14
34235;BME280;20500;49.856;20.290;2022-07-18T09:53:38;99806.79;;;26.87;36.82
34235;BME280;20500;49.856;20.290;2022-07-18T09:56:44;99811.73;;;26.94;36.97
34235;BME280;20500;49.856;20.290;2022-07-18T09:59:50;99808.65;;;27.01;36.58
34235;BME280;20500;49.856;20.290;2022-07-18T10:02:58;99809.28;;;27.07;36.21
34235;BME280;20500;49.856;20.290;2022-07-18T10:06:04;99806.88;;;27.13;36.15
34235;BME280;20500;49.856;20.290;2022-07-18T10:09:10;99804.45;;;27.02;36.02
34235;BME280;20500;49.856;20.290;2022-07-18T10:12:16;99798.68;;;27.00;35.99
34235;BME280;20500;49.856;20.290;2022-07-18T10:15:24;99793.36;;;27.14;35.92
34235;BME280;20500;49.856;20.290;2022-07-18T10:18:31;99794.21;;;27.10;35.96
34235;BME280;20500;49.856;20.290;2022-07-18T10:21:37;99791.49;;;27.26;35.79
34235;BME280;20500;49.856;20.290;2022-07-18T10:24:43;99789.35;;;27.17;35.69
34235;BME280;20500;49.856;20.290;2022-07-18T10:27:50;99787.37;;;27.29;35.62
34235;BME280;20500;49.856;20.290;2022-07-18T10:31:13;99787.71;;;27.34;35.29
34235;BME280;20500;49.856;20.290;2022-07-18T10:34:28;99784.84;;;27.43;35.12
34235;BME280;20500;49.856;20.290;2022-07-18T10:37:36;99787.49;;;27.51;34.82
34235;BME280;20500;49.856;20.290;2022-07-18T10:41:02;99783.37;;;27.38;34.77
34235;BME280;20500;49.856;20.290;2022-07-18T10:44:34;99783.22;;;27.46;34.68
34235;BME280;20500;49.856;20.290;2022-07-18T10:47:41;99785.13;;;27.48;34.59
34235;BME280;20500;49.856;20.290;2022-07-18T10:54:13;99783.53;;;27.79;34.69
34235;BME280;20500;49.856;20.290;2022-07-18T10:57:19;99779.45;;;27.95;34.68
34235;BME280;20500;49.856;20.290;2022-07-18T11:00:29;99772.00;;;28.16;34.42
34235;BME280;20500;49.856;20.290;2022-07-18T11:03:38;99770.04;;;28.18;34.21
34235;BME280;20500;49.856;20.290;2022-07-18T11:06:55;99771.60;;;28.24;34.27
34235;BME280;20500;49.856;20.290;2022-07-18T11:10:01;99771.33;;;28.28;34.00
34235;BME280;20500;49.856;20.290;2022-07-18T11:13:24;99771.95;;;28.21;33.89
34235;BME280;20500;49.856;20.290;2022-07-18T11:16:33;99768.93;;;28.14;33.67
34235;BME280;20500;49.856;20.290;2022-07-18T11:19:39;99761.70;;;28.11;33.75
34235;BME280;20500;49.856;20.290;2022-07-18T11:22:47;99761.30;;;28.20;33.94
34235;BME280;20500;49.856;20.290;2022-07-18T11:25:55;99752.80;;;28.23;33.63
34235;BME280;20500;49.856;20.290;2022-07-18T11:29:04;99751.45;;;28.31;33.50
34235;BME280;20500;49.856;20.290;2022-07-18T11:32:21;99756.32;;;28.24;33.59
34235;BME280;20500;49.856;20.290;2022-07-18T11:35:27;99749.66;;;28.36;33.61
34235;BME280;20500;49.856;20.290;2022-07-18T11:38:34;99748.19;;;28.52;33.42
34235;BME280;20500;49.856;20.290;2022-07-18T11:41:41;99744.16;;;28.36;33.20
34235;BME280;20500;49.856;20.290;2022-07-18T11:44:47;99749.20;;;28.21;33.08
34235;BME280;20500;49.856;20.290;2022-07-18T11:48:02;99743.59;;;27.94;32.83
34235;BME280;20500;49.856;20.290;2022-07-18T11:51:11;99748.20;;;27.68;32.87
34235;BME280;20500;49.856;20.290;2022-07-18T11:54:24;99743.14;;;27.62;32.88
34235;BME280;20500;49.856;20.290;2022-07-18T11:57:31;99743.44;;;27.72;32.77
34235;BME280;20500;49.856;20.290;2022-07-18T12:00:37;99740.98;;;27.68;32.69
34235;BME280;20500;49.856;20.290;2022-07-18T12:03:44;99735.29;;;27.71;32.88
34235;BME280;20500;49.856;20.290;2022-07-18T12:07:16;99735.91;;;27.81;32.80
34235;BME280;20500;49.856;20.290;2022-07-18T12:10:23;99734.02;;;28.01;32.70
34235;BME280;20500;49.856;20.290;2022-07-18T12:13:40;99733.27;;;28.02;32.45
34235;BME280;20500;49.856;20.290;2022-07-18T12:16:48;99737.08;;;28.06;32.26
34235;BME280;20500;49.856;20.290;2022-07-18T12:20:10;99732.99;;;27.97;32.45
34235;BME280;20500;49.856;20.290;2022-07-18T12:23:15;99732.05;;;27.97;32.42
34235;BME280;20500;49.856;20.290;2022-07-18T12:26:29;99729.92;;;27.92;32.27
34235;BME280;20500;49.856;20.290;2022-07-18T12:30:17;99725.50;;;27.86;32.33
34235;BME280;20500;49.856;20.290;2022-07-18T12:33:22;99722.70;;;27.95;32.54
34235;BME280;20500;49.856;20.290;2022-07-18T12:36:26;99720.01;;;28.05;32.38
34235;BME280;20500;49.856;20.290;2022-07-18T12:39:33;99715.58;;;28.08;32.19
34235;BME280;20500;49.856;20.290;2022-07-18T12:42:40;99714.90;;;28.18;32.40
34235;BME280;20500;49.856;20.290;2022-07-18T12:45:46;99713.14;;;28.34;32.47
34235;BME280;20500;49.856;20.290;2022-07-18T12:48:52;99710.16;;;28.48;32.31
34235;BME280;20500;49.856;20.290;2022-07-18T12:51:57;99706.77;;;28.57;32.31
34235;BME280;20500;49.856;20.290;2022-07-18T12:55:01;99704.71;;;28.66;32.34
34235;BME280;20500;49.856;20.290;2022-07-18T12:58:06;99703.89;;;28.64;32.02
34235;BME280;20500;49.856;20.290;2022-07-18T13:01:13;99704.64;;;28.57;32.20
34235;BME280;20500;49.856;20.290;2022-07-18T13:04:19;99703.69;;;28.58;32.27
34235;BME280;20500;49.856;20.290;2022-07-18T13:07:23;99696.91;;;28.56;32.09
34235;BME280;20500;49.856;20.290;2022-07-18T13:10:28;99694.73;;;28.50;32.05
34235;BME280;20500;49.856;20.290;2022-07-18T13:13:34;99689.05;;;28.43;31.97
34235;BME280;20500;49.856;20.290;2022-07-18T13:16:39;99687.54;;;28.30;31.73
34235;BME280;20500;49.856;20.290;2022-07-18T13:19:47;99683.35;;;28.02;31.61
34235;BME280;20500;49.856;20.290;2022-07-18T13:22:54;99681.75;;;27.78;31.59
34235;BME280;20500;49.856;20.290;2022-07-18T13:26:00;99678.83;;;27.73;32.02
34235;BME280;20500;49.856;20.290;2022-07-18T13:29:04;99681.02;;;27.85;31.84
34235;BME280;20500;49.856;20.290;2022-07-18T13:32:10;99676.58;;;28.00;31.73
34235;BME280;20500;49.856;20.290;2022-07-18T13:35:15;99676.79;;;28.09;31.68
34235;BME280;20500;49.856;20.290;2022-07-18T13:38:21;99671.96;;;28.12;31.88
34235;BME280;20500;49.856;20.290;2022-07-18T13:41:27;99672.28;;;28.19;32.10
34235;BME280;20500;49.856;20.290;2022-07-18T13:44:33;99666.05;;;28.24;31.80
34235;BME280;20500;49.856;20.290;2022-07-18T13:47:36;99668.38;;;28.14;31.62
34235;BME280;20500;49.856;20.290;2022-07-18T13:50:42;99663.41;;;28.07;31.93
34235;BME280;20500;49.856;20.290;2022-07-18T13:53:46;99662.85;;;28.10;31.91
34235;BME280;20500;49.856;20.290;2022-07-18T13:56:52;99659.99;;;28.09;31.94
34235;BME280;20500;49.856;20.290;2022-07-18T13:59:56;99663.46;;;28.10;32.04
34235;BME280;20500;49.856;20.290;2022-07-18T14:03:01;99662.36;;;28.02;32.06
34235;BME280;20500;49.856;20.290;2022-07-18T14:06:08;99659.17;;;28.01;32.03
34235;BME280;20500;49.856;20.290;2022-07-18T14:09:12;99656.56;;;27.82;31.72
34235;BME280;20500;49.856;20.290;2022-07-18T14:12:17;99659.35;;;27.58;31.93
34235;BME280;20500;49.856;20.290;2022-07-18T14:15:23;99655.55;;;27.56;32.28
34235;BME280;20500;49.856;20.290;2022-07-18T14:18:29;99652.91;;;27.59;32.25
34235;BME280;20500;49.856;20.290;2022-07-18T14:21:35;99652.24;;;27.58;32.31
34235;BME280;20500;49.856;20.290;2022-07-18T14:24:39;99648.73;;;27.57;32.36
34235;BME280;20500;49.856;20.290;2022-07-18T14:27:45;99645.92;;;27.52;32.37
34235;BME280;20500;49.856;20.290;2022-07-18T14:30:50;99646.21;;;27.48;32.38
34235;BME280;20500;49.856;20.290;2022-07-18T14:33:56;99642.62;;;27.44;32.53
34235;BME280;20500;49.856;20.290;2022-07-18T14:37:00;99638.20;;;27.27;32.27
34235;BME280;20500;49.856;20.290;2022-07-18T14:40:08;99634.27;;;27.17;32.63
34235;BME280;20500;49.856;20.290;2022-07-18T14:43:13;99632.32;;;27.20;32.66
34235;BME280;20500;49.856;20.290;2022-07-18T14:46:20;99630.64;;;27.22;32.45
34235;BME280;20500;49.856;20.290;2022-07-18T14:49:27;99622.91;;;27.13;32.45
34235;BME280;20500;49.856;20.290;2022-07-18T14:52:30;99623.59;;;27.00;32.46
34235;BME280;20500;49.856;20.290;2022-07-18T14:55:36;99623.78;;;26.81;32.46
34235;BME280;20500;49.856;20.290;2022-07-18T14:58:40;99624.66;;;26.72;32.65
34235;BME280;20500;49.856;20.290;2022-07-18T15:01:45;99624.48;;;26.75;32.92
34235;BME280;20500;49.856;20.290;2022-07-18T15:04:51;99615.56;;;26.81;32.91
34235;BME280;20500;49.856;20.290;2022-07-18T15:07:57;99614.40;;;26.88;32.85
34235;BME280;20500;49.856;20.290;2022-07-18T15:11:00;99619.06;;;26.91;32.89
34235;BME280;20500;49.856;20.290;2022-07-18T15:14:06;99615.14;;;26.92;32.94
34235;BME280;20500;49.856;20.290;2022-07-18T15:17:12;99610.84;;;26.90;33.08
34235;BME280;20500;49.856;20.290;2022-07-18T15:20:17;99608.33;;;26.88;33.11
34235;BME280;20500;49.856;20.290;2022-07-18T15:23:23;99610.27;;;26.89;33.34
34235;BME280;20500;49.856;20.290;2022-07-18T15:26:27;99604.54;;;26.92;33.38
34235;BME280;20500;49.856;20.290;2022-07-18T15:29:32;99603.58;;;26.87;33.06
34235;BME280;20500;49.856;20.290;2022-07-18T15:32:36;99603.99;;;26.77;33.22
34235;BME280;20500;49.856;20.290;2022-07-18T15:35:42;99604.42;;;26.72;33.11
34235;BME280;20500;49.856;20.290;2022-07-18T15:38:48;99605.19;;;26.65;33.21
34235;BME280;20500;49.856;20.290;2022-07-18T15:41:53;99598.83;;;26.50;33.35
34235;BME280;20500;49.856;20.290;2022-07-18T15:44:59;99596.48;;;26.41;33.42
34235;BME280;20500;49.856;20.290;2022-07-18T15:48:03;99595.76;;;26.30;33.20
34235;BME280;20500;49.856;20.290;2022-07-18T15:51:09;99593.77;;;26.19;33.24
34235;BME280;20500;49.856;20.290;2022-07-18T15:54:15;99589.33;;;26.12;33.31
34235;BME280;20500;49.856;20.290;2022-07-18T15:57:20;99587.52;;;26.10;33.56
34235;BME280;20500;49.856;20.290;2022-07-18T16:00:28;99587.48;;;26.11;33.56
34235;BME280;20500;49.856;20.290;2022-07-18T16:03:34;99580.70;;;26.18;33.67
34235;BME280;20500;49.856;20.290;2022-07-18T16:06:39;99578.11;;;26.25;33.72
34235;BME280;20500;49.856;20.290;2022-07-18T16:09:43;99579.35;;;26.30;33.73
34235;BME280;20500;49.856;20.290;2022-07-18T16:12:49;99579.38;;;26.33;33.87
34235;BME280;20500;49.856;20.290;2022-07-18T16:15:54;99577.43;;;26.37;33.98
34235;BME280;20500;49.856;20.290;2022-07-18T16:19:00;99573.02;;;26.38;34.13
34235;BME280;20500;49.856;20.290;2022-07-18T16:22:05;99578.54;;;26.40;34.27